sensor_id;sensor_type;location;lat;lon;timestamp;temperature;humidity
70246;SHT30;57637;49.272;8.590;2023-03-31T00:01:34;11.05;86.93
70246;SHT30;57637;49.272;8.590;2023-03-31T00:04:00;11.08;86.70
70246;SHT30;57637;49.272;8.590;2023-03-31T00:06:29;11.10;86.60
70246;SHT30;57637;49.272;8.590;2023-03-31T00:08:56;11.12;86.51
70246;SHT30;57637;49.272;8.590;2023-03-31T00:11:27;11.14;86.37
70246;SHT30;57637;49.272;8.590;2023-03-31T00:13:53;11.14;86.34
70246;SHT30;57637;49.272;8.590;2023-03-31T00:16:18;11.12;86.30
70246;SHT30;57637;49.272;8.590;2023-03-31T00:18:44;11.12;86.29
70246;SHT30;57637;49.272;8.590;2023-03-31T00:21:15;11.11;86.29
70246;SHT30;57637;49.272;8.590;2023-03-31T00:23:49;11.12;86.21
70246;SHT30;57637;49.272;8.590;2023-03-31T00:26:17;11.11;86.23
70246;SHT30;57637;49.272;8.590;2023-03-31T00:28:42;11.11;86.21
70246;SHT30;57637;49.272;8.590;2023-03-31T00:31:07;11.12;86.28
70246;SHT30;57637;49.272;8.590;2023-03-31T00:33:33;11.12;86.31
70246;SHT30;57637;49.272;8.590;2023-03-31T00:35:58;11.11;86.33
70246;SHT30;57637;49.272;8.590;2023-03-31T00:38:29;11.11;86.29
70246;SHT30;57637;49.272;8.590;2023-03-31T00:40:55;11.07;86.55
70246;SHT30;57637;49.272;8.590;2023-03-31T00:43:34;11.10;86.59
70246;SHT30;57637;49.272;8.590;2023-03-31T00:48:29;11.07;86.08
70246;SHT30;57637;49.272;8.590;2023-03-31T00:50:56;11.11;85.55
70246;SHT30;57637;49.272;8.590;2023-03-31T00:53:25;11.16;85.01
70246;SHT30;57637;49.272;8.590;2023-03-31T00:55:54;11.22;84.78
70246;SHT30;57637;49.272;8.590;2023-03-31T00:58:24;11.26;84.58
70246;SHT30;57637;49.272;8.590;2023-03-31T01:00:52;11.26;84.73
70246;SHT30;57637;49.272;8.590;2023-03-31T01:03:21;11.25;84.90
70246;SHT30;57637;49.272;8.590;2023-03-31T01:08:15;11.25;84.98
70246;SHT30;57637;49.272;8.590;2023-03-31T01:10:45;11.22;85.02
70246;SHT30;57637;49.272;8.590;2023-03-31T01:13:15;11.21;85.35
70246;SHT30;57637;49.272;8.590;2023-03-31T01:15:42;11.19;85.71
70246;SHT30;57637;49.272;8.590;2023-03-31T01:18:09;11.14;85.90
70246;SHT30;57637;49.272;8.590;2023-03-31T01:20:46;11.15;85.83
70246;SHT30;57637;49.272;8.590;2023-03-31T01:28:49;11.18;85.51
70246;SHT30;57637;49.272;8.590;2023-03-31T01:42:51;11.29;84.92
70246;SHT30;57637;49.272;8.590;2023-03-31T01:45:37;11.28;85.00
70246;SHT30;57637;49.272;8.590;2023-03-31T01:48:09;11.29;84.46
70246;SHT30;57637;49.272;8.590;2023-03-31T01:50:56;11.34;83.90
70246;SHT30;57637;49.272;8.590;2023-03-31T01:56:06;11.36;84.19
70246;SHT30;57637;49.272;8.590;2023-03-31T02:01:19;11.32;83.99
70246;SHT30;57637;49.272;8.590;2023-03-31T02:03:54;11.34;83.97
70246;SHT30;57637;49.272;8.590;2023-03-31T02:06:24;11.35;83.83
70246;SHT30;57637;49.272;8.590;2023-03-31T02:08:54;11.35;83.88
70246;SHT30;57637;49.272;8.590;2023-03-31T02:11:23;11.35;83.94
70246;SHT30;57637;49.272;8.590;2023-03-31T02:13:52;11.31;83.86
70246;SHT30;57637;49.272;8.590;2023-03-31T02:16:20;11.32;83.89
70246;SHT30;57637;49.272;8.590;2023-03-31T02:18:51;11.35;83.72
70246;SHT30;57637;49.272;8.590;2023-03-31T02:21:26;11.36;83.66
70246;SHT30;57637;49.272;8.590;2023-03-31T02:23:53;11.36;83.66
70246;SHT30;57637;49.272;8.590;2023-03-31T02:26:23;11.40;83.71
70246;SHT30;57637;49.272;8.590;2023-03-31T02:28:52;11.39;83.74
70246;SHT30;57637;49.272;8.590;2023-03-31T02:34:08;11.34;83.50
70246;SHT30;57637;49.272;8.590;2023-03-31T02:36:34;11.39;83.38
70246;SHT30;57637;49.272;8.590;2023-03-31T02:39:05;11.34;83.54
70246;SHT30;57637;49.272;8.590;2023-03-31T02:41:33;11.32;83.54
70246;SHT30;57637;49.272;8.590;2023-03-31T02:43:58;11.34;83.37
70246;SHT30;57637;49.272;8.590;2023-03-31T02:46:24;11.32;83.14
70246;SHT30;57637;49.272;8.590;2023-03-31T02:48:52;11.35;83.10
70246;SHT30;57637;49.272;8.590;2023-03-31T02:56:48;11.34;82.85
70246;SHT30;57637;49.272;8.590;2023-03-31T03:05:00;11.34;82.68
70246;SHT30;57637;49.272;8.590;2023-03-31T03:07:45;11.29;82.71
70246;SHT30;57637;49.272;8.590;2023-03-31T03:10:19;11.29;82.77
70246;SHT30;57637;49.272;8.590;2023-03-31T03:13:20;11.25;82.92
70246;SHT30;57637;49.272;8.590;2023-03-31T03:15:56;11.26;82.84
70246;SHT30;57637;49.272;8.590;2023-03-31T03:18:25;11.28;82.78
70246;SHT30;57637;49.272;8.590;2023-03-31T03:20:51;11.25;82.66
70246;SHT30;57637;49.272;8.590;2023-03-31T03:23:17;11.24;82.64
70246;SHT30;57637;49.272;8.590;2023-03-31T03:25:42;11.24;82.67
70246;SHT30;57637;49.272;8.590;2023-03-31T03:28:08;11.19;82.77
70246;SHT30;57637;49.272;8.590;2023-03-31T03:30:34;11.21;82.70
70246;SHT30;57637;49.272;8.590;2023-03-31T03:32:59;11.18;82.71
70246;SHT30;57637;49.272;8.590;2023-03-31T03:35:25;11.21;82.73
70246;SHT30;57637;49.272;8.590;2023-03-31T03:37:50;11.19;82.81
70246;SHT30;57637;49.272;8.590;2023-03-31T03:40:16;11.15;82.75
70246;SHT30;57637;49.272;8.590;2023-03-31T03:42:41;11.18;82.64
70246;SHT30;57637;49.272;8.590;2023-03-31T03:45:07;11.15;82.62
70246;SHT30;57637;49.272;8.590;2023-03-31T03:47:33;11.15;82.56
70246;SHT30;57637;49.272;8.590;2023-03-31T03:49:58;11.08;82.62
70246;SHT30;57637;49.272;8.590;2023-03-31T03:52:24;11.01;83.31
70246;SHT30;57637;49.272;8.590;2023-03-31T03:54:49;11.00;83.60
70246;SHT30;57637;49.272;8.590;2023-03-31T03:57:14;11.00;83.96
70246;SHT30;57637;49.272;8.590;2023-03-31T03:59:40;11.01;84.30
70246;SHT30;57637;49.272;8.590;2023-03-31T04:02:05;10.98;84.33
70246;SHT30;57637;49.272;8.590;2023-03-31T04:04:31;10.97;84.45
70246;SHT30;57637;49.272;8.590;2023-03-31T04:06:56;10.98;84.56
70246;SHT30;57637;49.272;8.590;2023-03-31T04:09:22;10.94;84.62
70246;SHT30;57637;49.272;8.590;2023-03-31T04:11:47;10.97;84.70
70246;SHT30;57637;49.272;8.590;2023-03-31T04:14:12;10.93;84.99
70246;SHT30;57637;49.272;8.590;2023-03-31T04:16:38;10.88;85.44
70246;SHT30;57637;49.272;8.590;2023-03-31T04:19:04;10.90;85.47
70246;SHT30;57637;49.272;8.590;2023-03-31T04:21:30;10.87;85.57
70246;SHT30;57637;49.272;8.590;2023-03-31T04:23:59;10.84;85.77
70246;SHT30;57637;49.272;8.590;2023-03-31T04:26:32;10.87;85.63
70246;SHT30;57637;49.272;8.590;2023-03-31T04:29:10;10.85;85.53
70246;SHT30;57637;49.272;8.590;2023-03-31T04:31:37;10.88;85.31
70246;SHT30;57637;49.272;8.590;2023-03-31T04:34:06;10.90;85.17
70246;SHT30;57637;49.272;8.590;2023-03-31T04:36:37;10.98;84.96
70246;SHT30;57637;49.272;8.590;2023-03-31T04:39:07;10.97;84.90
70246;SHT30;57637;49.272;8.590;2023-03-31T04:41:36;10.98;84.85
70246;SHT30;57637;49.272;8.590;2023-03-31T04:44:01;10.95;84.79
70246;SHT30;57637;49.272;8.590;2023-03-31T04:46:27;10.95;84.87
70246;SHT30;57637;49.272;8.590;2023-03-31T04:48:52;10.98;84.97
70246;SHT30;57637;49.272;8.590;2023-03-31T04:51:17;11.00;84.99
70246;SHT30;57637;49.272;8.590;2023-03-31T04:53:44;11.01;85.04
70246;SHT30;57637;49.272;8.590;2023-03-31T04:56:10;11.00;85.03
70246;SHT30;57637;49.272;8.590;2023-03-31T04:58:36;11.00;85.11
70246;SHT30;57637;49.272;8.590;2023-03-31T05:01:02;11.00;85.16
70246;SHT30;57637;49.272;8.590;2023-03-31T05:03:30;11.00;85.04
70246;SHT30;57637;49.272;8.590;2023-03-31T05:05:56;11.01;84.90
70246;SHT30;57637;49.272;8.590;2023-03-31T05:08:22;10.98;84.83
70246;SHT30;57637;49.272;8.590;2023-03-31T05:10:47;11.03;84.82
70246;SHT30;57637;49.272;8.590;2023-03-31T05:13:12;11.00;85.03
70246;SHT30;57637;49.272;8.590;2023-03-31T05:15:38;10.95;85.35
70246;SHT30;57637;49.272;8.590;2023-03-31T05:18:04;10.91;85.79
70246;SHT30;57637;49.272;8.590;2023-03-31T05:20:29;10.94;85.99
70246;SHT30;57637;49.272;8.590;2023-03-31T05:22:55;10.91;86.13
70246;SHT30;57637;49.272;8.590;2023-03-31T05:25:20;10.85;86.45
70246;SHT30;57637;49.272;8.590;2023-03-31T05:27:46;10.80;86.64
70246;SHT30;57637;49.272;8.590;2023-03-31T05:30:16;10.75;86.85
70246;SHT30;57637;49.272;8.590;2023-03-31T05:32:42;10.77;87.04
70246;SHT30;57637;49.272;8.590;2023-03-31T05:35:08;10.74;87.11
70246;SHT30;57637;49.272;8.590;2023-03-31T05:37:34;10.70;87.40
70246;SHT30;57637;49.272;8.590;2023-03-31T05:39:59;10.68;87.52
70246;SHT30;57637;49.272;8.590;2023-03-31T05:42:25;10.61;87.57
70246;SHT30;57637;49.272;8.590;2023-03-31T05:44:50;10.61;87.75
70246;SHT30;57637;49.272;8.590;2023-03-31T05:47:16;10.63;87.81
70246;SHT30;57637;49.272;8.590;2023-03-31T05:49:42;10.60;87.78
70246;SHT30;57637;49.272;8.590;2023-03-31T05:52:08;10.59;87.82
70246;SHT30;57637;49.272;8.590;2023-03-31T05:54:35;10.56;87.99
70246;SHT30;57637;49.272;8.590;2023-03-31T05:57:01;10.47;88.09
70246;SHT30;57637;49.272;8.590;2023-03-31T05:59:27;10.44;88.27
70246;SHT30;57637;49.272;8.590;2023-03-31T06:01:52;10.44;88.49
70246;SHT30;57637;49.272;8.590;2023-03-31T06:04:18;10.24;88.72
70246;SHT30;57637;49.272;8.590;2023-03-31T06:06:43;10.33;88.82
70246;SHT30;57637;49.272;8.590;2023-03-31T06:09:10;10.36;88.69
70246;SHT30;57637;49.272;8.590;2023-03-31T06:11:36;10.36;88.62
70246;SHT30;57637;49.272;8.590;2023-03-31T06:14:02;10.40;88.63
70246;SHT30;57637;49.272;8.590;2023-03-31T06:16:27;10.42;88.54
70246;SHT30;57637;49.272;8.590;2023-03-31T06:18:53;10.39;88.56
70246;SHT30;57637;49.272;8.590;2023-03-31T06:21:19;10.40;88.58
70246;SHT30;57637;49.272;8.590;2023-03-31T06:23:45;10.40;88.54
70246;SHT30;57637;49.272;8.590;2023-03-31T06:26:12;10.42;88.62
70246;SHT30;57637;49.272;8.590;2023-03-31T06:28:39;10.46;88.61
70246;SHT30;57637;49.272;8.590;2023-03-31T06:31:09;10.46;88.60
70246;SHT30;57637;49.272;8.590;2023-03-31T06:33:39;10.47;88.63
70246;SHT30;57637;49.272;8.590;2023-03-31T06:36:06;10.49;88.62
70246;SHT30;57637;49.272;8.590;2023-03-31T06:38:33;10.37;88.98
70246;SHT30;57637;49.272;8.590;2023-03-31T06:41:00;10.33;89.21
70246;SHT30;57637;49.272;8.590;2023-03-31T06:43:25;10.43;89.15
70246;SHT30;57637;49.272;8.590;2023-03-31T06:45:51;10.53;89.03
70246;SHT30;57637;49.272;8.590;2023-03-31T06:48:17;10.61;88.87
70246;SHT30;57637;49.272;8.590;2023-03-31T06:50:43;10.64;88.82
70246;SHT30;57637;49.272;8.590;2023-03-31T06:53:08;10.67;88.84
70246;SHT30;57637;49.272;8.590;2023-03-31T06:55:35;10.71;88.81
70246;SHT30;57637;49.272;8.590;2023-03-31T06:58:01;10.77;88.74
70246;SHT30;57637;49.272;8.590;2023-03-31T07:00:26;10.84;88.72
70246;SHT30;57637;49.272;8.590;2023-03-31T07:02:52;10.88;88.68
70246;SHT30;57637;49.272;8.590;2023-03-31T07:05:18;10.94;88.65
70246;SHT30;57637;49.272;8.590;2023-03-31T07:07:50;10.98;88.70
70246;SHT30;57637;49.272;8.590;2023-03-31T07:10:17;10.98;88.64
70246;SHT30;57637;49.272;8.590;2023-03-31T07:12:42;11.03;88.62
70246;SHT30;57637;49.272;8.590;2023-03-31T07:15:08;11.04;88.62
70246;SHT30;57637;49.272;8.590;2023-03-31T07:17:33;11.11;88.62
70246;SHT30;57637;49.272;8.590;2023-03-31T07:20:01;11.15;88.67
70246;SHT30;57637;49.272;8.590;2023-03-31T07:22:28;11.32;88.56
70246;SHT30;57637;49.272;8.590;2023-03-31T07:24:53;11.45;88.40
70246;SHT30;57637;49.272;8.590;2023-03-31T07:27:19;11.54;88.24
70246;SHT30;57637;49.272;8.590;2023-03-31T07:29:44;11.59;87.87
70246;SHT30;57637;49.272;8.590;2023-03-31T07:32:10;11.75;87.92
70246;SHT30;57637;49.272;8.590;2023-03-31T07:34:35;11.97;87.70
70246;SHT30;57637;49.272;8.590;2023-03-31T07:37:01;12.17;87.22
70246;SHT30;57637;49.272;8.590;2023-03-31T07:39:26;12.34;86.81
70246;SHT30;57637;49.272;8.590;2023-03-31T07:41:51;12.42;86.36
70246;SHT30;57637;49.272;8.590;2023-03-31T07:44:17;12.47;86.12
70246;SHT30;57637;49.272;8.590;2023-03-31T07:46:43;12.47;85.87
70246;SHT30;57637;49.272;8.590;2023-03-31T07:49:08;12.50;85.96
70246;SHT30;57637;49.272;8.590;2023-03-31T07:51:34;12.36;86.03
70246;SHT30;57637;49.272;8.590;2023-03-31T07:53:59;12.20;86.44
70246;SHT30;57637;49.272;8.590;2023-03-31T07:56:25;12.04;87.04
70246;SHT30;57637;49.272;8.590;2023-03-31T07:58:50;12.07;87.24
70246;SHT30;57637;49.272;8.590;2023-03-31T08:01:17;12.28;87.20
70246;SHT30;57637;49.272;8.590;2023-03-31T08:03:45;12.51;86.60
70246;SHT30;57637;49.272;8.590;2023-03-31T08:06:16;12.74;86.00
70246;SHT30;57637;49.272;8.590;2023-03-31T08:08:43;12.92;85.24
70246;SHT30;57637;49.272;8.590;2023-03-31T08:11:09;13.11;84.35
70246;SHT30;57637;49.272;8.590;2023-03-31T08:13:35;13.36;84.03
70246;SHT30;57637;49.272;8.590;2023-03-31T08:16:00;13.54;83.27
70246;SHT30;57637;49.272;8.590;2023-03-31T08:18:27;13.60;82.44
70246;SHT30;57637;49.272;8.590;2023-03-31T08:20:52;13.77;82.05
70246;SHT30;57637;49.272;8.590;2023-03-31T08:23:18;14.08;80.77
70246;SHT30;57637;49.272;8.590;2023-03-31T08:25:43;14.05;79.82
70246;SHT30;57637;49.272;8.590;2023-03-31T08:28:08;13.88;79.38
70246;SHT30;57637;49.272;8.590;2023-03-31T08:30:38;14.24;79.07
70246;SHT30;57637;49.272;8.590;2023-03-31T08:33:05;14.56;77.98
70246;SHT30;57637;49.272;8.590;2023-03-31T08:35:31;14.79;77.82
70246;SHT30;57637;49.272;8.590;2023-03-31T08:37:58;15.10;76.40
70246;SHT30;57637;49.272;8.590;2023-03-31T08:40:24;15.31;75.97
70246;SHT30;57637;49.272;8.590;2023-03-31T08:42:52;15.55;75.34
70246;SHT30;57637;49.272;8.590;2023-03-31T08:45:22;15.75;74.74
70246;SHT30;57637;49.272;8.590;2023-03-31T08:48:26;15.68;73.73
70246;SHT30;57637;49.272;8.590;2023-03-31T08:50:51;15.75;72.73
70246;SHT30;57637;49.272;8.590;2023-03-31T08:55:54;16.28;70.95
70246;SHT30;57637;49.272;8.590;2023-03-31T08:58:34;16.72;70.29
70246;SHT30;57637;49.272;8.590;2023-03-31T09:12:12;16.15;69.89
70246;SHT30;57637;49.272;8.590;2023-03-31T09:17:47;15.47;71.85
70246;SHT30;57637;49.272;8.590;2023-03-31T09:20:19;15.11;71.55
70246;SHT30;57637;49.272;8.590;2023-03-31T09:22:51;14.99;71.35
70246;SHT30;57637;49.272;8.590;2023-03-31T09:25:31;15.26;71.31
70246;SHT30;57637;49.272;8.590;2023-03-31T09:28:01;15.41;69.69
70246;SHT30;57637;49.272;8.590;2023-03-31T09:30:29;15.58;70.61
70246;SHT30;57637;49.272;8.590;2023-03-31T09:33:03;15.57;69.81
70246;SHT30;57637;49.272;8.590;2023-03-31T09:35:36;15.78;69.29
70246;SHT30;57637;49.272;8.590;2023-03-31T09:38:02;15.82;69.46
70246;SHT30;57637;49.272;8.590;2023-03-31T09:40:28;15.81;68.31
70246;SHT30;57637;49.272;8.590;2023-03-31T09:42:58;15.65;68.27
70246;SHT30;57637;49.272;8.590;2023-03-31T09:45:27;15.55;68.89
70246;SHT30;57637;49.272;8.590;2023-03-31T09:47:58;15.31;67.96
70246;SHT30;57637;49.272;8.590;2023-03-31T09:50:26;15.40;68.90
70246;SHT30;57637;49.272;8.590;2023-03-31T09:52:54;15.38;69.13
70246;SHT30;57637;49.272;8.590;2023-03-31T09:55:31;15.31;69.10
70246;SHT30;57637;49.272;8.590;2023-03-31T09:58:07;15.62;67.63
70246;SHT30;57637;49.272;8.590;2023-03-31T10:00:39;15.68;66.32
70246;SHT30;57637;49.272;8.590;2023-03-31T10:03:21;15.70;66.87
70246;SHT30;57637;49.272;8.590;2023-03-31T10:05:49;15.77;66.30
70246;SHT30;57637;49.272;8.590;2023-03-31T10:13:16;15.31;71.19
70246;SHT30;57637;49.272;8.590;2023-03-31T10:15:45;15.27;70.25
70246;SHT30;57637;49.272;8.590;2023-03-31T10:18:14;15.60;71.23
70246;SHT30;57637;49.272;8.590;2023-03-31T10:20:43;15.87;70.80
70246;SHT30;57637;49.272;8.590;2023-03-31T10:23:17;16.18;68.70
70246;SHT30;57637;49.272;8.590;2023-03-31T10:25:48;16.77;65.44
70246;SHT30;57637;49.272;8.590;2023-03-31T10:28:16;17.10;64.05
70246;SHT30;57637;49.272;8.590;2023-03-31T10:30:48;16.86;62.20
70246;SHT30;57637;49.272;8.590;2023-03-31T10:33:18;16.79;62.78
70246;SHT30;57637;49.272;8.590;2023-03-31T10:35:47;16.53;62.70
70246;SHT30;57637;49.272;8.590;2023-03-31T10:38:16;15.88;65.96
70246;SHT30;57637;49.272;8.590;2023-03-31T10:40:50;14.92;70.47
70246;SHT30;57637;49.272;8.590;2023-03-31T10:43:25;14.14;73.72
70246;SHT30;57637;49.272;8.590;2023-03-31T10:45:53;13.12;75.01
70246;SHT30;57637;49.272;8.590;2023-03-31T10:51:03;12.31;81.03
70246;SHT30;57637;49.272;8.590;2023-03-31T10:53:40;12.06;81.10
70246;SHT30;57637;49.272;8.590;2023-03-31T11:01:53;12.27;81.21
70246;SHT30;57637;49.272;8.590;2023-03-31T11:07:30;12.41;79.34
70246;SHT30;57637;49.272;8.590;2023-03-31T11:15:39;13.66;75.28
70246;SHT30;57637;49.272;8.590;2023-03-31T11:21:17;14.35;72.97
70246;SHT30;57637;49.272;8.590;2023-03-31T11:26:39;14.92;72.21
70246;SHT30;57637;49.272;8.590;2023-03-31T11:40:46;15.57;67.51
70246;SHT30;57637;49.272;8.590;2023-03-31T11:46:21;15.46;65.42
70246;SHT30;57637;49.272;8.590;2023-03-31T11:51:28;15.61;64.77
70246;SHT30;57637;49.272;8.590;2023-03-31T11:53:59;15.71;64.55
70246;SHT30;57637;49.272;8.590;2023-03-31T11:56:37;15.81;63.97
70246;SHT30;57637;49.272;8.590;2023-03-31T11:59:05;15.97;64.03
70246;SHT30;57637;49.272;8.590;2023-03-31T12:07:11;15.94;62.79
70246;SHT30;57637;49.272;8.590;2023-03-31T12:16:10;15.02;64.50
70246;SHT30;57637;49.272;8.590;2023-03-31T12:25:03;14.82;66.55
70246;SHT30;57637;49.272;8.590;2023-03-31T12:32:32;14.41;68.20
70246;SHT30;57637;49.272;8.590;2023-03-31T12:35:05;14.11;67.43
70246;SHT30;57637;49.272;8.590;2023-03-31T12:46:20;14.11;68.13
70246;SHT30;57637;49.272;8.590;2023-03-31T12:48:41;14.34;68.74
70246;SHT30;57637;49.272;8.590;2023-03-31T12:52:11;14.49;68.12
70246;SHT30;57637;49.272;8.590;2023-03-31T12:59:42;14.22;68.21
70246;SHT30;57637;49.272;8.590;2023-03-31T13:04:34;14.17;68.71
70246;SHT30;57637;49.272;8.590;2023-03-31T13:07:04;14.11;69.96
70246;SHT30;57637;49.272;8.590;2023-03-31T13:09:38;13.70;71.76
70246;SHT30;57637;49.272;8.590;2023-03-31T13:12:11;13.64;73.79
70246;SHT30;57637;49.272;8.590;2023-03-31T13:14:39;13.33;74.94
70246;SHT30;57637;49.272;8.590;2023-03-31T13:17:24;13.66;75.66
70246;SHT30;57637;49.272;8.590;2023-03-31T13:19:52;13.91;75.33
70246;SHT30;57637;49.272;8.590;2023-03-31T13:22:28;14.03;75.31
70246;SHT30;57637;49.272;8.590;2023-03-31T13:25:23;14.46;74.69
70246;SHT30;57637;49.272;8.590;2023-03-31T13:28:17;14.61;73.88
70246;SHT30;57637;49.272;8.590;2023-03-31T13:30:45;14.54;73.02
70246;SHT30;57637;49.272;8.590;2023-03-31T13:33:13;14.45;73.19
70246;SHT30;57637;49.272;8.590;2023-03-31T13:35:45;14.54;74.42
70246;SHT30;57637;49.272;8.590;2023-03-31T13:38:17;14.72;74.74
70246;SHT30;57637;49.272;8.590;2023-03-31T13:41:18;15.04;73.91
70246;SHT30;57637;49.272;8.590;2023-03-31T13:50:20;15.72;72.00
70246;SHT30;57637;49.272;8.590;2023-03-31T13:53:56;15.84;72.36
70246;SHT30;57637;49.272;8.590;2023-03-31T14:02:13;16.00;71.20
70246;SHT30;57637;49.272;8.590;2023-03-31T14:07:31;16.12;70.32
70246;SHT30;57637;49.272;8.590;2023-03-31T14:10:03;16.16;70.33
70246;SHT30;57637;49.272;8.590;2023-03-31T14:14:57;16.04;68.53
70246;SHT30;57637;49.272;8.590;2023-03-31T14:17:25;15.88;67.55
70246;SHT30;57637;49.272;8.590;2023-03-31T14:22:38;16.08;67.73
70246;SHT30;57637;49.272;8.590;2023-03-31T14:39:04;14.78;73.09
70246;SHT30;57637;49.272;8.590;2023-03-31T14:41:33;14.51;74.35
70246;SHT30;57637;49.272;8.590;2023-03-31T14:44:02;14.28;74.66
70246;SHT30;57637;49.272;8.590;2023-03-31T14:46:30;14.21;75.95
70246;SHT30;57637;49.272;8.590;2023-03-31T14:48:57;14.21;76.18
70246;SHT30;57637;49.272;8.590;2023-03-31T14:51:26;14.31;76.55
70246;SHT30;57637;49.272;8.590;2023-03-31T14:54:00;14.44;76.21
70246;SHT30;57637;49.272;8.590;2023-03-31T14:56:30;14.62;76.05
70246;SHT30;57637;49.272;8.590;2023-03-31T14:59:00;14.68;75.84
70246;SHT30;57637;49.272;8.590;2023-03-31T15:01:28;14.73;75.89
70246;SHT30;57637;49.272;8.590;2023-03-31T15:04:00;14.65;75.64
70246;SHT30;57637;49.272;8.590;2023-03-31T15:06:31;14.55;76.90
70246;SHT30;57637;49.272;8.590;2023-03-31T15:08:59;14.62;75.89
70246;SHT30;57637;49.272;8.590;2023-03-31T15:11:26;14.51;75.93
70246;SHT30;57637;49.272;8.590;2023-03-31T15:13:54;14.48;76.24
70246;SHT30;57637;49.272;8.590;2023-03-31T15:16:32;14.54;76.69
70246;SHT30;57637;49.272;8.590;2023-03-31T15:18:59;14.51;75.90
70246;SHT30;57637;49.272;8.590;2023-03-31T15:21:30;14.39;75.55
70246;SHT30;57637;49.272;8.590;2023-03-31T15:23:58;14.46;75.70
70246;SHT30;57637;49.272;8.590;2023-03-31T15:26:28;14.56;74.90
70246;SHT30;57637;49.272;8.590;2023-03-31T15:32:06;14.62;73.82
70246;SHT30;57637;49.272;8.590;2023-03-31T15:34:38;14.55;74.16
70246;SHT30;57637;49.272;8.590;2023-03-31T15:37:05;14.34;73.99
70246;SHT30;57637;49.272;8.590;2023-03-31T15:39:31;14.20;74.03
70246;SHT30;57637;49.272;8.590;2023-03-31T15:42:00;13.98;74.61
70246;SHT30;57637;49.272;8.590;2023-03-31T15:47:26;13.73;74.46
70246;SHT30;57637;49.272;8.590;2023-03-31T15:52:33;13.67;73.94
70246;SHT30;57637;49.272;8.590;2023-03-31T15:55:00;13.52;74.00
70246;SHT30;57637;49.272;8.590;2023-03-31T15:57:46;13.53;74.75
70246;SHT30;57637;49.272;8.590;2023-03-31T16:00:39;13.52;74.91
70246;SHT30;57637;49.272;8.590;2023-03-31T16:02:57;13.49;75.63
70246;SHT30;57637;49.272;8.590;2023-03-31T16:05:39;13.46;75.87
70246;SHT30;57637;49.272;8.590;2023-03-31T16:08:16;13.30;76.01
70246;SHT30;57637;49.272;8.590;2023-03-31T16:11:12;13.22;76.67
70246;SHT30;57637;49.272;8.590;2023-03-31T16:13:42;13.18;77.01
70246;SHT30;57637;49.272;8.590;2023-03-31T16:16:14;13.13;77.26
70246;SHT30;57637;49.272;8.590;2023-03-31T16:18:49;13.09;77.58
70246;SHT30;57637;49.272;8.590;2023-03-31T16:21:21;13.03;77.98
70246;SHT30;57637;49.272;8.590;2023-03-31T16:23:54;13.02;77.84
70246;SHT30;57637;49.272;8.590;2023-03-31T16:26:22;13.01;77.98
70246;SHT30;57637;49.272;8.590;2023-03-31T16:28:49;12.96;78.07
70246;SHT30;57637;49.272;8.590;2023-03-31T16:31:37;12.91;78.28
70246;SHT30;57637;49.272;8.590;2023-03-31T16:34:08;12.88;78.49
70246;SHT30;57637;49.272;8.590;2023-03-31T16:36:35;12.87;78.52
70246;SHT30;57637;49.272;8.590;2023-03-31T16:39:01;12.80;78.82
70246;SHT30;57637;49.272;8.590;2023-03-31T16:41:29;12.72;78.92
70246;SHT30;57637;49.272;8.590;2023-03-31T16:43:56;12.62;79.15
70246;SHT30;57637;49.272;8.590;2023-03-31T16:46:22;12.60;79.43
70246;SHT30;57637;49.272;8.590;2023-03-31T16:48:51;12.50;79.48
70246;SHT30;57637;49.272;8.590;2023-03-31T16:51:17;12.33;79.08
70246;SHT30;57637;49.272;8.590;2023-03-31T16:53:43;12.26;78.81
70246;SHT30;57637;49.272;8.590;2023-03-31T16:56:11;12.14;77.81
70246;SHT30;57637;49.272;8.590;2023-03-31T16:58:38;12.12;78.23
70246;SHT30;57637;49.272;8.590;2023-03-31T17:01:04;12.03;78.43
70246;SHT30;57637;49.272;8.590;2023-03-31T17:03:31;11.94;78.30
70246;SHT30;57637;49.272;8.590;2023-03-31T17:05:57;11.85;78.27
70246;SHT30;57637;49.272;8.590;2023-03-31T17:08:30;11.73;78.16
70246;SHT30;57637;49.272;8.590;2023-03-31T17:11:07;11.67;77.87
70246;SHT30;57637;49.272;8.590;2023-03-31T17:13:36;11.61;78.22
70246;SHT30;57637;49.272;8.590;2023-03-31T17:16:06;11.49;77.90
70246;SHT30;57637;49.272;8.590;2023-03-31T17:18:32;11.46;77.94
70246;SHT30;57637;49.272;8.590;2023-03-31T17:21:02;11.43;77.87
70246;SHT30;57637;49.272;8.590;2023-03-31T17:23:31;11.38;78.08
70246;SHT30;57637;49.272;8.590;2023-03-31T17:25:57;11.34;78.26
70246;SHT30;57637;49.272;8.590;2023-03-31T17:28:23;11.24;79.06
70246;SHT30;57637;49.272;8.590;2023-03-31T17:30:48;11.19;79.40
70246;SHT30;57637;49.272;8.590;2023-03-31T17:33:14;11.10;79.67
70246;SHT30;57637;49.272;8.590;2023-03-31T17:35:40;11.04;80.26
70246;SHT30;57637;49.272;8.590;2023-03-31T17:38:07;10.97;80.78
70246;SHT30;57637;49.272;8.590;2023-03-31T17:40:35;10.90;81.24
70246;SHT30;57637;49.272;8.590;2023-03-31T17:43:01;10.83;81.52
70246;SHT30;57637;49.272;8.590;2023-03-31T17:45:29;10.77;81.67
70246;SHT30;57637;49.272;8.590;2023-03-31T17:47:56;10.75;81.62
70246;SHT30;57637;49.272;8.590;2023-03-31T17:50:22;10.75;81.67
70246;SHT30;57637;49.272;8.590;2023-03-31T17:52:48;10.75;81.59
70246;SHT30;57637;49.272;8.590;2023-03-31T17:55:14;10.74;81.62
70246;SHT30;57637;49.272;8.590;2023-03-31T17:57:40;10.75;81.47
70246;SHT30;57637;49.272;8.590;2023-03-31T18:00:07;10.75;81.48
70246;SHT30;57637;49.272;8.590;2023-03-31T18:02:37;10.75;81.41
70246;SHT30;57637;49.272;8.590;2023-03-31T18:05:04;10.74;81.23
70246;SHT30;57637;49.272;8.590;2023-03-31T18:07:30;10.70;81.28
70246;SHT30;57637;49.272;8.590;2023-03-31T18:09:57;10.64;81.16
70246;SHT30;57637;49.272;8.590;2023-03-31T18:12:22;10.65;81.10
70246;SHT30;57637;49.272;8.590;2023-03-31T18:14:48;10.64;81.21
70246;SHT30;57637;49.272;8.590;2023-03-31T18:17:14;10.59;81.05
70246;SHT30;57637;49.272;8.590;2023-03-31T18:19:41;10.54;80.61
70246;SHT30;57637;49.272;8.590;2023-03-31T18:22:06;10.53;80.74
70246;SHT30;57637;49.272;8.590;2023-03-31T18:24:32;10.52;80.82
70246;SHT30;57637;49.272;8.590;2023-03-31T18:27:00;10.47;80.53
70246;SHT30;57637;49.272;8.590;2023-03-31T18:29:25;10.49;80.75
70246;SHT30;57637;49.272;8.590;2023-03-31T18:31:51;10.44;80.69
70246;SHT30;57637;49.272;8.590;2023-03-31T18:34:16;10.49;80.85
70246;SHT30;57637;49.272;8.590;2023-03-31T18:36:42;10.50;81.06
70246;SHT30;57637;49.272;8.590;2023-03-31T18:39:08;10.50;81.20
70246;SHT30;57637;49.272;8.590;2023-03-31T18:41:34;10.47;81.37
70246;SHT30;57637;49.272;8.590;2023-03-31T18:44:00;10.46;81.31
70246;SHT30;57637;49.272;8.590;2023-03-31T18:46:25;10.44;81.46
70246;SHT30;57637;49.272;8.590;2023-03-31T18:48:51;10.47;81.53